• Join FlightAware (Why Join?)
  • Login
  • US Flag 
04:21PM EDT


 

Airport Tracker/Info


-or-


 

Live Flight TrackerFlight Track Log ✈ N830QS ✈ 30-Jun-2013 ✈ KSFO - KCRQ

Flight Track Log - Related Links

Times and Time Zones

All times are in EDT time to prevent confusion due to time zone crossing. See the N830QS flight status page for this flight to view local times or setup timezone preferences in your user account.

Time Position Orientation Groundspeed Altitude Reporting Facility
EDT Latitude Longitude Course Direction KTS MPH feet Rate Location/Type
03:40PM 37.6667 -122.4833 297° West 253 291 3,200  Level Northern Cal TRACON
03:41PM 37.6139 -122.5889 238° Southwest 284 327 7,000 2,400 Climbing Oakland Center
03:43PM 37.5431 -122.4979 180° South  Level Estimated
03:43PM 37.4447 -122.6269 180° South 290 334 12,500  Level Oakland Center
03:45PM 37.3631 -122.6167 174° South 296 341 14,600 2,040 Climbing Oakland Center
03:46PM 37.2772 -122.6061 174° South 308 354 16,700 2,100 Climbing Oakland Center
03:47PM 37.1906 -122.5967 175° South 311 358 19,000 2,040 Climbing Oakland Center
03:48PM 37.1042 -122.5878 175° South 313 360 20,900 1,620 Climbing Oakland Center
03:49PM 37.0194 -122.5581 164° South 325 374 22,400 1,440 Climbing Oakland Center
03:50PM 36.9478 -122.4856 141° Southeast 332 382 23,900 1,500 Climbing Oakland Center
03:51PM 36.8592 -122.3967 141° Southeast 341 392 25,500 1,320 Climbing Oakland Center
03:52PM 36.7814 -122.3214 142° Southeast 352 405 26,700 1,260 Climbing Oakland Center
03:53PM 36.7042 -122.2450 142° Southeast 356 410 28,200 1,500 Climbing Oakland Center
03:54PM 36.6258 -122.1706 143° Southeast 356 410 29,800 1,260 Climbing Oakland Center
03:55PM 36.5469 -122.1000 144° Southeast 351 404 30,900 540 Climbing Oakland Center
03:56PM 36.4656 -122.0192 141° Southeast 371 427 31,000  Climbing Oakland Center
03:57PM 36.3778 -121.9386 144° Southeast 389 448 31,000  Level Oakland Center
03:59PM 36.1844 -121.7528 142° Southeast 408 470 31,000  Level Oakland Center
04:00PM 36.0947 -121.6664 142° Southeast 409 471 31,000  Level Oakland Center
04:01PM 36.0036 -121.5797 142° Southeast 412 474 31,000  Level Oakland Center
04:02PM 35.9119 -121.4947 143° Southeast 412 474 31,000  Level Oakland Center
04:03PM 35.8208 -121.4092 143° Southeast 413 475 31,000  Level Oakland Center
04:04PM 35.7303 -121.3228 142° Southeast 412 474 31,000  Level Oakland Center
04:05PM 35.6397 -121.2369 142° Southeast 411 473 31,000  Level Oakland Center
04:06PM 35.5317 -121.1367 143° Southeast 408 470 31,000  Level Oakland Center
04:07PM 35.4558 -121.0350 132° Southeast 408 470 31,000  Level Oakland Center
04:08PM 35.3892 -120.9181 125° Southeast 414 476 31,000  Level Oakland Center
04:09PM 35.3236 -120.8039 125° Southeast 414 476 31,000  Level Oakland Center
04:10PM 35.2592 -120.6906 125° Southeast 411 473 31,000  Level Oakland Center
04:11PM 35.2297 -120.6358 123° Southeast 413 475 31,000  Level Los Angeles Center
04:12PM 35.1514 -120.4989 125° Southeast 410 472 31,000  Level Los Angeles Center
04:13PM 35.0992 -120.4061 125° Southeast 411 473 31,000  Level Los Angeles Center
04:14PM 35.0208 -120.2686 125° Southeast 409 471 31,000  Level Los Angeles Center
04:15PM 34.9544 -120.1539 125° Southeast 411 473 31,000  Level Los Angeles Center
04:16PM 34.8844 -120.0325 125° Southeast 413 475 31,000  Level Los Angeles Center
04:17PM 34.8183 -119.9181 125° Southeast 415 478 31,000  Level Los Angeles Center
04:18PM 34.7400 -119.7828 125° Southeast 410 472 31,000  Level Los Angeles Center
04:19PM 34.6869 -119.6922 125° Southeast 411 473 31,000  Level Los Angeles Center
04:20PM 34.6031 -119.5517 126° Southeast 412 474 31,000  Level Los Angeles Center
04:21PM 34.5356 -119.4406 126° Southeast 411 473 31,000  Level Los Angeles Center
04:22PM 34.4689 -119.3294 126° Southeast 408 470 31,000  Level Los Angeles Center
04:23PM 34.4039 -119.2172 125° Southeast 408 470 31,000 -300 Level Los Angeles Center
04:24PM 34.3242 -119.0858 126° Southeast 405 466 30,400 -1,020 Descending Los Angeles Center
04:25PM 34.2589 -118.9733 125° Southeast 408 470 29,000 -1,620 Descending Los Angeles Center
04:26PM 34.1775 -118.8386 126° Southeast 413 475 27,100 -1,620 Descending Los Angeles Center
04:27PM 34.1103 -118.7281 126° Southeast 411 473 25,700 -1,320 Descending Los Angeles Center
04:28PM 34.0469 -118.6208 125° Southeast 399 459 24,400 -840 Descending Los Angeles Center
04:30PM 33.9853 -118.5183 126° Southeast 384 442 24,000 -780 Descending Los Angeles Center
04:31PM 33.8869 -118.4511 150° Southeast 398 458 22,700 -1,440 Descending Los Angeles Center
04:32PM 33.7572 -118.4950 196° South 382 440 20,800 -1,560 Descending Los Angeles Center
04:34PM 33.5564 -118.5567 194° South 377 434 18,000 -1,440 Descending Los Angeles Center
04:35PM 33.4706 -118.5025 152° Southeast 353 406 16,500 -1,680 Descending Los Angeles Center
04:36PM 33.3797 -118.4158 141° Southeast 357 411 14,600 -1,560 Descending Los Angeles Center
04:37PM 33.3581 -118.3042 103° East 351 404 13,300 -840 Descending Los Angeles Center
04:38PM 33.3450 -118.1972 98° East 334 384 12,900 -900 Descending Los Angeles Center
04:39PM 33.3322 -118.1011 99° East 303 349 11,500 -1,500 Descending Los Angeles Center
04:40PM 33.3200 -118.0047 99° East 297 342 9,800 -2,520 Descending Los Angeles Center
04:41PM 33.3044 -117.8928 99° East 287 330 6,400 -2,400 Descending Los Angeles Center
04:42PM 33.2950 -117.8206 99° East 280 322 5,000 -720 Descending Los Angeles Center
04:43PM 33.2806 -117.7144 99° East 272 313 5,000  Level Los Angeles Center
04:44PM 33.2686 -117.6247 99° East 274 315 5,000 -120 Level Los Angeles Center
04:45PM 33.2500 -117.5167 102° East 282 325 4,800 -540 Descending Southern California TRACON
04:46PM 33.2500 -117.4333 90° East 274 315 4,000 -600 Descending Southern California TRACON
04:47PM 33.2333 -117.3667 107° East 201 231 3,700 -720 Descending Southern California TRACON
04:48PM 33.2167 -117.3000 107° East 191 220 2,600 -840 Descending Southern California TRACON
04:49PM 33.2000 -117.2500 112° Southeast 191 220 2,100 -300 Descending Southern California TRACON
04:50PM 33.1667 -117.2167 140° Southeast 154 177 2,000 -240 Descending Southern California TRACON
04:51PM 33.1500 -117.2167 180° South 136 157 1,700 -600 Descending Southern California TRACON
04:52PM 33.1333 -117.2500 239° Southwest 126 145 900 -840 Descending Southern California TRACON